createdAt,value
2023-03-20T00:00:31.268Z,101379.77
2023-03-20T00:01:53.245Z,101382.25
2023-03-20T00:02:56.720Z,101383.38
2023-03-20T00:03:59.799Z,101383.45
2023-03-20T00:05:02.750Z,101380.94
2023-03-20T00:06:06.266Z,101374.97
2023-03-20T00:07:13.134Z,101372.63
2023-03-20T00:08:16.291Z,101375.32
2023-03-20T00:09:19.200Z,101370.46
2023-03-20T00:10:25.471Z,101367.69
2023-03-20T00:11:33.143Z,101365.48
2023-03-20T00:12:36.237Z,101361.52
2023-03-20T00:13:39.146Z,101364.36
2023-03-20T00:14:42.160Z,101360.88
2023-03-20T00:15:45.540Z,101361.09
2023-03-20T00:16:50.616Z,101363.00
2023-03-20T00:17:54.345Z,101367.27
2023-03-20T00:18:57.874Z,101365.27
2023-03-20T00:20:00.949Z,101364.06
2023-03-20T00:21:03.985Z,101362.15
2023-03-20T00:22:06.966Z,101361.96
2023-03-20T00:23:10.243Z,101358.47
2023-03-20T00:24:14.202Z,101358.68
2023-03-20T00:25:20.758Z,101360.70
2023-03-20T00:26:33.992Z,101359.86
2023-03-20T00:27:37.748Z,101356.52
2023-03-20T00:28:46.248Z,101358.23
2023-03-20T00:29:49.095Z,101358.64
2023-03-20T00:30:52.117Z,101357.50
2023-03-20T00:31:55.965Z,101357.31
2023-03-20T00:32:59.727Z,101357.52
2023-03-20T00:34:07.356Z,101354.52
2023-03-20T00:35:37.301Z,101352.50
2023-03-20T00:36:41.102Z,101352.95
2023-03-20T00:37:44.169Z,101355.42
2023-03-20T00:38:47.662Z,101353.00
2023-03-20T00:39:50.521Z,101354.83
2023-03-20T00:40:53.510Z,101353.61
2023-03-20T00:42:00.791Z,101351.44
2023-03-20T00:43:04.959Z,101352.30
2023-03-20T00:44:42.751Z,101350.70
2023-03-20T00:45:46.518Z,101352.81
2023-03-20T00:47:02.740Z,101352.34
2023-03-20T00:48:06.102Z,101349.88
2023-03-20T00:49:11.871Z,101346.98
2023-03-20T00:50:17.755Z,101345.09
2023-03-20T00:51:20.835Z,101342.35
2023-03-20T00:52:24.689Z,101341.93
2023-03-20T00:53:27.995Z,101343.38
2023-03-20T00:54:31.930Z,101340.17
2023-03-20T00:55:36.153Z,101340.99
2023-03-20T00:56:45.866Z,101337.35
2023-03-20T00:57:50.690Z,101342.48
2023-03-20T00:58:54.311Z,101341.98
2023-03-20T01:00:06.879Z,101340.52
2023-03-20T01:01:09.871Z,101343.36
2023-03-20T01:02:13.048Z,101345.21
2023-03-20T01:03:24.557Z,101346.85
2023-03-20T01:04:35.785Z,101348.29
2023-03-20T01:05:39.584Z,101343.51
2023-03-20T01:06:43.278Z,101343.15
2023-03-20T01:07:46.731Z,101341.23
2023-03-20T01:08:49.736Z,101341.35
2023-03-20T01:09:52.939Z,101340.86
2023-03-20T01:10:58.691Z,101337.55
2023-03-20T01:12:03.225Z,101343.09
2023-03-20T01:13:17.460Z,101342.25
2023-03-20T01:14:20.420Z,101342.23
2023-03-20T01:15:27.683Z,101337.05
2023-03-20T01:16:30.681Z,101339.94
2023-03-20T01:17:33.773Z,101338.13
2023-03-20T01:18:37.254Z,101334.98
2023-03-20T01:19:40.802Z,101336.14
2023-03-20T01:20:43.804Z,101337.95
2023-03-20T01:21:46.850Z,101337.16
2023-03-20T01:22:50.392Z,101342.40
2023-03-20T01:23:53.193Z,101343.27
2023-03-20T01:24:56.158Z,101345.71
2023-03-20T01:25:59.256Z,101345.09
2023-03-20T01:27:04.251Z,101342.29
2023-03-20T01:28:19.490Z,101342.77
2023-03-20T01:29:25.279Z,101341.10
2023-03-20T01:32:00.791Z,101342.41
2023-03-20T01:33:13.658Z,101340.30
2023-03-20T01:34:17.267Z,101336.55
2023-03-20T01:35:22.966Z,101340.63
2023-03-20T01:36:26.317Z,101339.17
2023-03-20T01:37:29.803Z,101340.00
2023-03-20T01:38:36.481Z,101335.02
2023-03-20T01:39:39.846Z,101338.16
2023-03-20T01:40:51.127Z,101338.23
2023-03-20T01:41:54.915Z,101338.45
2023-03-20T01:43:00.122Z,101337.10
2023-03-20T01:44:19.718Z,101334.39
2023-03-20T01:45:30.030Z,101331.92
2023-03-20T01:46:38.833Z,101330.01
2023-03-20T01:47:49.757Z,101333.04
2023-03-20T01:48:53.681Z,101331.85
2023-03-20T01:50:26.826Z,101329.38
2023-03-20T01:51:36.812Z,101329.44
2023-03-20T01:52:45.520Z,101329.67
2023-03-20T01:53:53.156Z,101328.85
2023-03-20T01:54:56.669Z,101328.36
2023-03-20T01:56:01.628Z,101325.31
2023-03-20T01:57:18.495Z,101324.42
2023-03-20T01:58:31.587Z,101327.39
2023-03-20T01:59:44.211Z,101324.86
2023-03-20T02:00:49.139Z,101321.31
2023-03-20T02:01:52.478Z,101319.63
2023-03-20T02:02:56.824Z,101315.73
2023-03-20T02:04:26.044Z,101314.84
2023-03-20T02:05:34.185Z,101318.16
2023-03-20T02:06:40.331Z,101313.54
2023-03-20T02:08:10.626Z,101314.30
2023-03-20T02:09:13.850Z,101310.11
2023-03-20T02:10:19.186Z,101307.84
2023-03-20T02:11:41.989Z,101309.86
2023-03-20T02:12:47.504Z,101309.70
2023-03-20T02:13:57.281Z,101310.59
2023-03-20T02:15:02.356Z,101308.33
2023-03-20T02:16:31.182Z,101309.84
2023-03-20T02:17:43.763Z,101311.20
2023-03-20T02:18:50.553Z,101305.67
2023-03-20T02:20:12.539Z,101305.56
2023-03-20T02:21:36.272Z,101303.52
2023-03-20T02:23:06.420Z,101303.63
2023-03-20T02:24:48.283Z,101303.05
2023-03-20T02:25:57.775Z,101302.25
2023-03-20T02:27:33.228Z,101301.67
2023-03-20T02:29:01.146Z,101297.52
2023-03-20T02:30:41.076Z,101297.55
2023-03-20T02:31:58.373Z,101296.27
2023-03-20T02:33:23.812Z,101296.88
2023-03-20T02:35:09.613Z,101291.98
2023-03-20T02:36:42.322Z,101291.09
2023-03-20T02:38:06.603Z,101289.13
2023-03-20T02:39:25.611Z,101282.78
2023-03-20T02:40:54.583Z,101285.34
2023-03-20T02:42:08.803Z,101282.86
2023-03-20T02:43:26.517Z,101284.41
2023-03-20T02:44:44.606Z,101288.21
2023-03-20T02:46:14.142Z,101286.81
2023-03-20T02:47:26.733Z,101287.80
2023-03-20T02:48:33.129Z,101287.02
2023-03-20T02:50:05.349Z,101286.48
2023-03-20T02:51:18.274Z,101289.83
2023-03-20T02:52:33.675Z,101285.87
2023-03-20T02:53:54.935Z,101287.67
2023-03-20T02:55:21.600Z,101287.68
2023-03-20T02:56:51.346Z,101285.02
2023-03-20T02:58:00.413Z,101286.73
2023-03-20T02:59:12.205Z,101284.22
2023-03-20T03:00:35.642Z,101281.38
2023-03-20T03:01:44.478Z,101277.77
2023-03-20T03:02:59.969Z,101273.95
2023-03-20T03:04:12.932Z,101273.63
2023-03-20T03:05:24.692Z,101270.51
2023-03-20T03:06:32.662Z,101272.61
2023-03-20T03:07:39.221Z,101269.92
2023-03-20T03:08:50.041Z,101269.28
2023-03-20T03:10:00.090Z,101266.57
2023-03-20T03:11:08.805Z,101266.33
2023-03-20T03:12:18.323Z,101263.75
2023-03-20T03:13:27.080Z,101263.74
2023-03-20T03:14:37.118Z,101261.05
2023-03-20T03:15:48.462Z,101257.49
2023-03-20T03:16:52.998Z,101260.89
2023-03-20T03:17:58.541Z,101256.84
2023-03-20T03:19:09.383Z,101258.48
2023-03-20T03:20:26.649Z,101254.11
2023-03-20T03:21:33.486Z,101256.81
2023-03-20T03:22:36.958Z,101256.33
2023-03-20T03:23:47.874Z,101255.83
2023-03-20T03:24:53.226Z,101251.43
2023-03-20T03:26:01.155Z,101253.56
2023-03-20T03:27:17.669Z,101250.87
2023-03-20T03:28:37.648Z,101254.51
2023-03-20T03:29:42.459Z,101254.45
2023-03-20T03:30:46.746Z,101255.35
2023-03-20T03:31:49.685Z,101257.39
2023-03-20T03:33:29.960Z,101255.20
2023-03-20T03:34:35.052Z,101254.89
2023-03-20T03:35:39.212Z,101256.86
2023-03-20T03:36:54.556Z,101258.27
2023-03-20T03:37:57.599Z,101256.83
2023-03-20T03:39:19.526Z,101259.67
2023-03-20T03:40:44.785Z,101255.09
2023-03-20T03:41:54.037Z,101251.91
2023-03-20T03:43:21.389Z,101250.85
2023-03-20T03:44:48.657Z,101249.09
2023-03-20T03:46:06.301Z,101250.16
2023-03-20T03:47:21.599Z,101251.34
2023-03-20T03:48:32.908Z,101250.45
2023-03-20T03:49:44.088Z,101249.63
2023-03-20T03:51:11.111Z,101248.83
2023-03-20T03:52:23.627Z,101250.20
2023-03-20T03:53:34.752Z,101244.81
2023-03-20T03:54:53.447Z,101247.73
2023-03-20T03:56:12.757Z,101249.10
2023-03-20T03:57:20.594Z,101249.19
2023-03-20T03:58:33.242Z,101246.01
2023-03-20T03:59:40.435Z,101247.73
2023-03-20T04:00:48.043Z,101244.41
2023-03-20T04:01:52.531Z,101245.06
2023-03-20T04:02:58.300Z,101239.73
2023-03-20T04:04:06.285Z,101236.30
2023-03-20T04:05:10.417Z,101234.89
2023-03-20T04:06:15.957Z,101234.70
2023-03-20T04:07:19.393Z,101234.56
2023-03-20T04:08:22.427Z,101235.35
2023-03-20T04:09:25.426Z,101235.16
2023-03-20T04:10:28.602Z,101231.70
2023-03-20T04:11:31.799Z,101234.01
2023-03-20T04:12:40.675Z,101231.60
2023-03-20T04:13:49.002Z,101229.17
2023-03-20T04:14:51.982Z,101229.23
2023-03-20T04:15:57.964Z,101231.64
2023-03-20T04:17:02.910Z,101228.06
2023-03-20T04:18:14.708Z,101229.82
2023-03-20T04:19:17.779Z,101231.14
2023-03-20T04:20:22.823Z,101230.86
2023-03-20T04:21:25.882Z,101233.15
2023-03-20T04:22:28.932Z,101232.15
2023-03-20T04:23:35.710Z,101234.29
2023-03-20T04:24:38.962Z,101233.84
2023-03-20T04:25:42.205Z,101232.57
2023-03-20T04:26:46.900Z,101230.65
2023-03-20T04:27:50.425Z,101229.42
2023-03-20T04:29:11.136Z,101226.61
2023-03-20T04:30:34.315Z,101225.80
2023-03-20T04:32:09.896Z,101225.44
2023-03-20T04:33:32.821Z,101228.59
2023-03-20T04:34:56.482Z,101224.39
2023-03-20T04:36:14.035Z,101223.32
2023-03-20T04:37:17.091Z,101224.39
2023-03-20T04:38:34.752Z,101225.35
2023-03-20T04:39:38.075Z,101226.70
2023-03-20T04:40:41.279Z,101228.98
2023-03-20T04:41:44.636Z,101226.45
2023-03-20T04:42:47.634Z,101231.27
2023-03-20T04:43:50.659Z,101230.55
2023-03-20T04:44:53.810Z,101224.08
2023-03-20T04:45:58.725Z,101219.73
2023-03-20T04:47:02.017Z,101221.46
2023-03-20T04:48:07.137Z,101217.11
2023-03-20T04:49:10.615Z,101217.24
2023-03-20T04:50:14.302Z,101223.58
2023-03-20T04:51:17.180Z,101227.34
2023-03-20T04:52:24.677Z,101227.28
2023-03-20T04:53:28.058Z,101228.23
2023-03-20T04:54:31.728Z,101228.76
2023-03-20T04:55:34.877Z,101227.93
2023-03-20T04:56:38.026Z,101225.88
2023-03-20T04:57:59.414Z,101223.78
2023-03-20T04:59:03.322Z,101226.67
2023-03-20T05:00:06.815Z,101225.65
2023-03-20T05:01:09.837Z,101222.02
2023-03-20T05:02:15.053Z,101219.27
2023-03-20T05:03:17.964Z,101214.73
2023-03-20T05:04:21.523Z,101214.94
2023-03-20T05:05:25.198Z,101214.23
2023-03-20T05:06:29.012Z,101210.58
2023-03-20T05:07:32.845Z,101209.57
2023-03-20T05:08:38.569Z,101205.22
2023-03-20T05:09:42.191Z,101208.63
2023-03-20T05:10:45.548Z,101207.11
2023-03-20T05:12:11.443Z,101205.79
2023-03-20T05:13:14.250Z,101205.35
2023-03-20T05:14:40.325Z,101204.42
2023-03-20T05:16:09.600Z,101204.86
2023-03-20T05:17:18.473Z,101203.88
2023-03-20T05:18:47.614Z,101205.94
2023-03-20T05:20:07.770Z,101212.60
2023-03-20T05:21:22.285Z,101210.45
2023-03-20T05:22:48.995Z,101208.03
2023-03-20T05:24:10.699Z,101210.17
2023-03-20T05:25:26.664Z,101215.41
2023-03-20T05:26:55.497Z,101210.47
2023-03-20T05:28:21.282Z,101213.77
2023-03-20T05:29:50.294Z,101212.77
2023-03-20T05:31:09.048Z,101213.64
2023-03-20T05:32:28.217Z,101211.79
2023-03-20T05:33:43.589Z,101215.38
2023-03-20T05:34:54.916Z,101218.48
2023-03-20T05:36:10.072Z,101220.98
2023-03-20T05:37:27.211Z,101219.00
2023-03-20T05:38:43.499Z,101218.35
2023-03-20T05:40:03.294Z,101216.21
2023-03-20T05:41:26.022Z,101217.41
2023-03-20T05:42:57.851Z,101213.61
2023-03-20T05:44:26.975Z,101213.46
2023-03-20T05:45:59.011Z,101216.52
2023-03-20T05:47:34.583Z,101214.77
2023-03-20T05:49:13.229Z,101211.63
2023-03-20T05:50:28.647Z,101210.26
2023-03-20T05:51:57.952Z,101207.52
2023-03-20T05:53:18.637Z,101207.14
2023-03-20T05:54:30.727Z,101209.70
2023-03-20T05:55:41.565Z,101210.77
2023-03-20T05:57:07.191Z,101209.59
2023-03-20T05:58:28.273Z,101211.45
2023-03-20T05:59:38.773Z,101210.77
2023-03-20T06:01:16.542Z,101211.91
2023-03-20T06:02:38.410Z,101212.67
2023-03-20T06:03:49.068Z,101210.94
2023-03-20T06:04:53.335Z,101207.04
2023-03-20T06:06:01.466Z,101206.16
2023-03-20T06:07:06.398Z,101207.58
2023-03-20T06:08:09.504Z,101208.89
2023-03-20T06:09:12.335Z,101207.31
2023-03-20T06:10:16.210Z,101207.64
2023-03-20T06:11:19.333Z,101210.30
2023-03-20T06:12:22.783Z,101210.78
2023-03-20T06:13:26.191Z,101208.84
2023-03-20T06:14:29.166Z,101207.98
2023-03-20T06:15:35.863Z,101209.45
2023-03-20T06:16:47.058Z,101209.84
2023-03-20T06:17:50.865Z,101209.14
2023-03-20T06:18:53.913Z,101209.59
2023-03-20T06:19:58.512Z,101206.42
2023-03-20T06:21:02.554Z,101205.29
2023-03-20T06:22:05.890Z,101200.23
2023-03-20T06:23:09.455Z,101200.81
2023-03-20T06:24:12.538Z,101206.40
2023-03-20T06:25:16.391Z,101210.45
2023-03-20T06:26:20.431Z,101209.63
2023-03-20T06:27:31.856Z,101209.05
2023-03-20T06:28:35.425Z,101208.97
2023-03-20T06:29:41.794Z,101208.82
2023-03-20T06:30:53.480Z,101212.45
2023-03-20T06:31:58.171Z,101211.80
2023-03-20T06:33:07.020Z,101213.64
2023-03-20T06:34:15.110Z,101210.91
2023-03-20T06:35:21.215Z,101214.27
2023-03-20T06:36:25.521Z,101211.89
2023-03-20T06:37:32.384Z,101214.63
2023-03-20T06:38:42.260Z,101215.95
2023-03-20T06:39:48.724Z,101211.36
2023-03-20T06:40:51.804Z,101213.10
2023-03-20T06:41:55.105Z,101214.63
2023-03-20T06:42:59.746Z,101209.00
2023-03-20T06:44:10.754Z,101209.80
2023-03-20T06:45:40.244Z,101207.35
2023-03-20T06:46:53.551Z,101208.39
2023-03-20T06:47:56.449Z,101207.69
2023-03-20T06:48:59.460Z,101206.40
2023-03-20T06:50:02.485Z,101205.84
2023-03-20T06:51:08.172Z,101206.09
2023-03-20T06:52:21.614Z,101203.69
2023-03-20T06:53:32.947Z,101207.85
2023-03-20T06:54:45.030Z,101205.05
2023-03-20T06:55:51.701Z,101207.46
2023-03-20T06:56:54.729Z,101208.23
2023-03-20T06:57:58.147Z,101209.34
2023-03-20T06:59:01.308Z,101208.46
2023-03-20T07:00:06.343Z,101210.67
2023-03-20T07:01:17.312Z,101207.39
2023-03-20T07:02:20.948Z,101207.88
2023-03-20T07:03:23.859Z,101208.27
2023-03-20T07:04:27.734Z,101210.19
2023-03-20T07:05:34.197Z,101210.59
2023-03-20T07:06:38.894Z,101214.46
2023-03-20T07:07:42.327Z,101207.04
2023-03-20T07:08:45.527Z,101209.42
2023-03-20T07:09:48.715Z,101209.28
2023-03-20T07:10:51.797Z,101207.89
2023-03-20T07:11:55.008Z,101213.70
2023-03-20T07:12:58.995Z,101212.13
2023-03-20T07:14:02.398Z,101210.10
2023-03-20T07:15:23.272Z,101209.50
2023-03-20T07:16:26.439Z,101212.02
2023-03-20T07:17:29.930Z,101214.50
2023-03-20T07:18:33.575Z,101210.73
2023-03-20T07:19:38.233Z,101210.66
2023-03-20T07:20:41.642Z,101212.73
2023-03-20T07:21:45.039Z,101213.95
2023-03-20T07:22:48.798Z,101214.05
2023-03-20T07:23:54.620Z,101217.56
2023-03-20T07:24:58.113Z,101219.64
2023-03-20T07:26:01.598Z,101220.94
2023-03-20T07:27:04.844Z,101218.36
2023-03-20T07:28:08.972Z,101217.66
2023-03-20T07:29:14.009Z,101216.04
2023-03-20T07:30:19.290Z,101212.86
2023-03-20T07:31:25.918Z,101213.77
2023-03-20T07:32:58.575Z,101210.91
2023-03-20T07:34:04.669Z,101212.64
2023-03-20T07:35:10.208Z,101213.81
2023-03-20T07:36:16.647Z,101215.13
2023-03-20T07:37:20.269Z,101215.13
2023-03-20T07:38:33.621Z,101214.30
2023-03-20T07:39:43.356Z,101218.23
2023-03-20T07:41:06.819Z,101212.08
2023-03-20T07:42:11.348Z,101213.14
2023-03-20T07:43:20.782Z,101209.13
2023-03-20T07:44:35.953Z,101210.10
2023-03-20T07:45:44.406Z,101209.10
2023-03-20T07:46:47.927Z,101207.55
2023-03-20T07:47:51.459Z,101204.19
2023-03-20T07:48:54.333Z,101202.19
2023-03-20T07:49:57.172Z,101204.39
2023-03-20T07:50:59.943Z,101204.69
2023-03-20T07:52:03.269Z,101202.73
2023-03-20T07:53:06.251Z,101203.67
2023-03-20T07:54:09.108Z,101203.80
2023-03-20T07:55:13.150Z,101202.02
2023-03-20T07:56:16.043Z,101202.99
2023-03-20T07:57:18.954Z,101205.17
2023-03-20T07:58:22.590Z,101202.08
2023-03-20T07:59:25.442Z,101202.85
2023-03-20T08:00:28.531Z,101206.73
2023-03-20T08:01:31.395Z,101205.16
2023-03-20T08:02:34.822Z,101207.02
2023-03-20T08:03:39.654Z,101208.48
2023-03-20T08:04:43.509Z,101207.15
2023-03-20T08:05:47.534Z,101204.83
2023-03-20T08:06:51.773Z,101209.52
2023-03-20T08:07:55.027Z,101207.14
2023-03-20T08:08:57.966Z,101211.06
2023-03-20T08:10:00.938Z,101213.60
2023-03-20T08:11:04.046Z,101212.39
2023-03-20T08:12:07.360Z,101212.27
2023-03-20T08:13:10.513Z,101215.79
2023-03-20T08:14:13.429Z,101211.29
2023-03-20T08:15:16.770Z,101207.79
2023-03-20T08:16:26.830Z,101206.88
2023-03-20T08:17:29.686Z,101207.41
2023-03-20T08:18:33.215Z,101202.54
2023-03-20T08:19:36.462Z,101204.92
2023-03-20T08:20:39.306Z,101202.51
2023-03-20T08:21:42.197Z,101204.30
2023-03-20T08:22:45.742Z,101201.09
2023-03-20T08:23:48.799Z,101202.50
2023-03-20T08:24:51.593Z,101202.98
2023-03-20T08:25:54.410Z,101201.71
2023-03-20T08:26:57.608Z,101202.80
2023-03-20T08:28:01.791Z,101204.58
2023-03-20T08:29:04.847Z,101199.40
2023-03-20T08:30:09.581Z,101198.61
2023-03-20T08:31:12.649Z,101201.80
2023-03-20T08:32:15.604Z,101200.52
2023-03-20T08:33:19.071Z,101202.11
2023-03-20T08:34:24.051Z,101201.34
2023-03-20T08:35:33.351Z,101200.38
2023-03-20T08:36:48.248Z,101204.73
2023-03-20T08:37:51.052Z,101203.39
2023-03-20T08:38:53.879Z,101202.20
2023-03-20T08:39:56.975Z,101197.09
2023-03-20T08:40:59.817Z,101199.77
2023-03-20T08:42:02.668Z,101199.55
2023-03-20T08:43:05.669Z,101195.52
2023-03-20T08:44:08.537Z,101199.41
2023-03-20T08:45:11.962Z,101200.16
2023-03-20T08:46:15.021Z,101198.16
2023-03-20T08:47:17.849Z,101198.60
2023-03-20T08:48:21.207Z,101200.05
2023-03-20T08:49:24.454Z,101197.25
2023-03-20T08:50:27.687Z,101195.34
2023-03-20T08:51:30.928Z,101195.79
2023-03-20T08:52:33.815Z,101195.79
2023-03-20T08:53:37.158Z,101194.84
2023-03-20T08:54:39.960Z,101192.11
2023-03-20T08:55:49.141Z,101189.87
2023-03-20T08:56:52.063Z,101192.78
2023-03-20T08:57:57.360Z,101192.24
2023-03-20T08:59:00.162Z,101192.11
2023-03-20T09:00:04.411Z,101194.70
2023-03-20T09:01:09.380Z,101193.13
2023-03-20T09:02:12.808Z,101195.10
2023-03-20T09:03:18.973Z,101189.33
2023-03-20T09:04:21.848Z,101188.25
2023-03-20T09:05:24.649Z,101191.10
2023-03-20T09:06:27.479Z,101188.59
2023-03-20T09:07:30.298Z,101189.05
2023-03-20T09:08:33.170Z,101187.36
2023-03-20T09:09:36.299Z,101189.28
2023-03-20T09:10:40.736Z,101190.71
2023-03-20T09:11:43.662Z,101191.30
2023-03-20T09:12:46.875Z,101184.67
2023-03-20T09:13:49.909Z,101184.98
2023-03-20T09:14:52.847Z,101190.08
2023-03-20T09:15:56.943Z,101185.98
2023-03-20T09:16:59.965Z,101181.74
2023-03-20T09:18:04.003Z,101182.67
2023-03-20T09:19:07.070Z,101183.21
2023-03-20T09:20:10.778Z,101185.45
2023-03-20T09:21:13.640Z,101183.36
2023-03-20T09:22:19.640Z,101188.48
2023-03-20T09:23:22.913Z,101189.06
2023-03-20T09:24:25.847Z,101194.49
2023-03-20T09:25:28.862Z,101187.46
2023-03-20T09:26:31.645Z,101192.05
2023-03-20T09:27:34.487Z,101191.13
2023-03-20T09:28:37.324Z,101193.05
2023-03-20T09:29:41.491Z,101194.70
2023-03-20T09:30:45.409Z,101183.92
2023-03-20T09:31:48.239Z,101185.52
2023-03-20T09:32:51.626Z,101190.63
2023-03-20T09:33:54.468Z,101188.61
2023-03-20T09:34:57.282Z,101188.54
2023-03-20T09:36:00.720Z,101187.89
2023-03-20T09:37:04.236Z,101189.60
2023-03-20T09:38:07.446Z,101193.73
2023-03-20T09:39:10.361Z,101191.75
2023-03-20T09:40:27.847Z,101188.91
2023-03-20T09:41:49.184Z,101196.41
2023-03-20T09:43:02.834Z,101203.52
2023-03-20T09:44:17.655Z,101206.70
2023-03-20T09:45:30.875Z,101208.64
2023-03-20T09:46:39.459Z,101208.19
2023-03-20T09:48:04.165Z,101211.89
2023-03-20T09:49:17.679Z,101210.71
2023-03-20T09:50:36.381Z,101213.16
2023-03-20T09:51:49.447Z,101222.66
2023-03-20T09:53:07.351Z,101229.48
2023-03-20T09:54:20.946Z,101234.20
2023-03-20T09:55:31.918Z,101235.55
2023-03-20T09:56:35.409Z,101240.98
2023-03-20T09:57:42.719Z,101241.21
2023-03-20T09:58:53.499Z,101246.63
2023-03-20T10:00:01.569Z,101246.19
2023-03-20T10:01:06.894Z,101252.81
2023-03-20T10:02:24.556Z,101248.23
2023-03-20T10:03:56.958Z,101252.89
2023-03-20T10:04:59.777Z,101250.02
2023-03-20T10:06:12.068Z,101251.80
2023-03-20T10:07:17.266Z,101250.36
2023-03-20T10:08:24.754Z,101247.29
2023-03-20T10:09:31.856Z,101250.14
2023-03-20T10:10:42.296Z,101244.90
2023-03-20T10:12:04.094Z,101244.96
2023-03-20T10:13:45.738Z,101241.51
2023-03-20T10:15:08.286Z,101244.48
2023-03-20T10:16:55.693Z,101242.22
2023-03-20T10:18:17.461Z,101236.95
2023-03-20T10:19:28.050Z,101244.48
2023-03-20T10:20:45.654Z,101241.32
2023-03-20T10:21:56.279Z,101234.61
2023-03-20T10:23:06.127Z,101235.52
2023-03-20T10:24:22.683Z,101234.86
2023-03-20T10:25:42.317Z,101235.84
2023-03-20T10:26:50.073Z,101235.06
2023-03-20T10:28:00.376Z,101238.34
2023-03-20T10:29:20.382Z,101231.60
2023-03-20T10:30:35.975Z,101233.50
2023-03-20T10:31:58.729Z,101236.72
2023-03-20T10:33:19.096Z,101237.61
2023-03-20T10:34:49.923Z,101237.81
2023-03-20T10:36:21.637Z,101236.58
2023-03-20T10:37:50.029Z,101236.21
2023-03-20T10:39:03.133Z,101238.08
2023-03-20T10:40:27.573Z,101240.24
2023-03-20T10:41:36.343Z,101247.64
2023-03-20T10:42:44.824Z,101249.00
2023-03-20T10:43:51.453Z,101235.96
2023-03-20T10:45:47.231Z,101250.17
2023-03-20T10:46:53.738Z,101255.15
2023-03-20T10:48:00.733Z,101259.13
2023-03-20T10:49:14.240Z,101256.23
2023-03-20T10:50:25.724Z,101257.27
2023-03-20T10:51:46.424Z,101256.67
2023-03-20T10:52:54.006Z,101258.33
2023-03-20T10:54:02.504Z,101261.70
2023-03-20T10:55:12.492Z,101259.77
2023-03-20T10:56:27.504Z,101257.45
2023-03-20T10:57:34.618Z,101258.81
2023-03-20T10:58:40.972Z,101263.59
2023-03-20T10:59:56.674Z,101262.23
2023-03-20T11:01:00.586Z,101263.08
2023-03-20T11:02:11.507Z,101266.46
2023-03-20T11:03:23.499Z,101264.99
2023-03-20T11:04:26.450Z,101261.70
2023-03-20T11:05:32.893Z,101258.13
2023-03-20T11:06:47.282Z,101260.73
2023-03-20T11:08:07.560Z,101256.69
2023-03-20T11:09:17.798Z,101255.91
2023-03-20T11:10:20.683Z,101258.92
2023-03-20T11:11:26.687Z,101250.95
2023-03-20T11:12:33.720Z,101256.03
2023-03-20T11:13:44.821Z,101251.70
2023-03-20T11:14:47.643Z,101253.43
2023-03-20T11:15:53.050Z,101256.57
2023-03-20T11:17:02.019Z,101255.70
2023-03-20T11:18:07.823Z,101255.40
2023-03-20T11:19:11.883Z,101255.09
2023-03-20T11:20:14.837Z,101255.05
2023-03-20T11:21:24.906Z,101256.84
2023-03-20T11:22:28.819Z,101257.27
2023-03-20T11:23:35.837Z,101254.92
2023-03-20T11:24:47.319Z,101251.16
2023-03-20T11:26:12.147Z,101251.98
2023-03-20T11:27:24.594Z,101254.56
2023-03-20T11:28:36.138Z,101254.94
2023-03-20T11:29:43.181Z,101257.20
2023-03-20T11:31:04.015Z,101257.92
2023-03-20T11:32:34.097Z,101253.47
2023-03-20T11:33:45.403Z,101259.02
2023-03-20T11:34:48.452Z,101259.94
2023-03-20T11:35:55.292Z,101260.45
2023-03-20T11:37:10.074Z,101255.46
2023-03-20T11:38:17.833Z,101259.64
2023-03-20T11:39:27.316Z,101256.75
2023-03-20T11:40:32.514Z,101256.05
2023-03-20T11:41:42.826Z,101259.88
2023-03-20T11:43:00.888Z,101258.49
2023-03-20T11:44:04.041Z,101256.42
2023-03-20T11:45:16.857Z,101255.63
2023-03-20T11:46:23.211Z,101256.35
2023-03-20T11:47:28.382Z,101254.09
2023-03-20T11:48:40.753Z,101251.10
2023-03-20T11:49:50.337Z,101254.13
2023-03-20T11:51:07.348Z,101247.68
2023-03-20T11:52:15.953Z,101250.63
2023-03-20T11:53:33.904Z,101254.71
2023-03-20T11:54:38.650Z,101253.67
2023-03-20T11:55:42.774Z,101256.55
2023-03-20T11:56:56.373Z,101255.58
2023-03-20T11:58:01.093Z,101258.52
2023-03-20T11:59:14.758Z,101258.07
2023-03-20T12:00:24.270Z,101261.92
2023-03-20T12:01:28.991Z,101252.84
2023-03-20T12:02:32.466Z,101256.73
2023-03-20T12:04:27.372Z,101263.30
2023-03-20T12:05:39.796Z,101258.55
2023-03-20T12:06:50.597Z,101257.22
2023-03-20T12:07:58.169Z,101256.94
2023-03-20T12:09:12.026Z,101261.60
2023-03-20T12:10:15.615Z,101257.45
2023-03-20T12:11:46.733Z,101257.78
2023-03-20T12:12:49.531Z,101258.63
2023-03-20T12:13:57.478Z,101259.29
2023-03-20T12:15:18.639Z,101257.73
2023-03-20T12:16:25.178Z,101249.95
2023-03-20T12:17:56.990Z,101247.60
2023-03-20T12:19:03.082Z,101244.52
2023-03-20T12:20:15.150Z,101245.15
2023-03-20T12:21:27.138Z,101245.73
2023-03-20T12:22:49.613Z,101246.12
2023-03-20T12:24:04.564Z,101240.77
2023-03-20T12:25:20.188Z,101239.82
2023-03-20T12:26:34.503Z,101246.95
2023-03-20T12:27:46.134Z,101239.24
2023-03-20T12:29:03.000Z,101233.73
2023-03-20T12:30:20.973Z,101233.08
2023-03-20T12:31:26.311Z,101239.20
2023-03-20T12:32:52.246Z,101235.64
2023-03-20T12:34:01.579Z,101233.03
2023-03-20T12:35:17.192Z,101231.85
2023-03-20T12:36:36.058Z,101239.78
2023-03-20T12:37:39.008Z,101246.66
2023-03-20T12:38:43.433Z,101239.27
2023-03-20T12:39:54.829Z,101234.47
2023-03-20T12:41:19.865Z,101234.88
2023-03-20T12:42:54.755Z,101226.50
2023-03-20T12:44:19.851Z,101230.55
2023-03-20T12:46:05.956Z,101223.59
2023-03-20T12:47:40.000Z,101224.50
2023-03-20T12:49:11.474Z,101220.48
2023-03-20T12:50:39.487Z,101225.89
2023-03-20T12:52:01.479Z,101219.21
2023-03-20T12:53:16.333Z,101221.40
2023-03-20T12:54:57.172Z,101219.23
2023-03-20T12:56:32.524Z,101221.92
2023-03-20T12:57:41.390Z,101220.23
2023-03-20T12:58:52.236Z,101214.56
2023-03-20T12:59:55.135Z,101212.40
2023-03-20T13:01:04.160Z,101216.78
2023-03-20T13:02:33.824Z,101216.03
2023-03-20T13:03:58.543Z,101210.73
2023-03-20T13:05:22.455Z,101211.05
2023-03-20T13:06:40.686Z,101214.66
2023-03-20T13:08:00.084Z,101218.71
2023-03-20T13:09:44.681Z,101221.64
2023-03-20T13:11:29.531Z,101219.66
2023-03-20T13:13:01.959Z,101222.80
2023-03-20T13:14:31.758Z,101228.21
2023-03-20T13:15:49.893Z,101230.95
2023-03-20T13:17:13.714Z,101229.28
2023-03-20T13:18:37.341Z,101234.58
2023-03-20T13:20:12.028Z,101235.87
2023-03-20T13:21:38.291Z,101235.59
2023-03-20T13:23:18.154Z,101232.75
2023-03-20T13:25:02.931Z,101238.95
2023-03-20T13:26:18.200Z,101241.14
2023-03-20T13:27:23.814Z,101244.02